createdAt,value
2019-03-06T00:00:52.802Z,4.30
2019-03-06T00:02:28.044Z,4.40
2019-03-06T00:04:02.842Z,4.40
2019-03-06T00:05:39.298Z,4.40
2019-03-06T00:07:14.175Z,4.30
2019-03-06T00:08:49.028Z,4.30
2019-03-06T00:10:27.084Z,4.30
2019-03-06T00:12:01.953Z,4.30
2019-03-06T00:13:36.751Z,4.30
2019-03-06T00:15:11.890Z,4.30
2019-03-06T00:16:46.790Z,4.30
2019-03-06T00:18:21.592Z,4.30
2019-03-06T00:19:56.708Z,4.30
2019-03-06T00:21:31.890Z,4.20
2019-03-06T00:23:07.020Z,4.20
2019-03-06T01:23:20.409Z,4.00
2019-03-06T01:24:55.951Z,0.90
2019-03-06T01:26:30.943Z,0.80
2019-03-06T01:28:06.114Z,0.80
2019-03-06T01:29:41.198Z,0.70
2019-03-06T01:55:16.370Z,0.70
2019-03-06T01:56:51.272Z,0.20
2019-03-06T01:58:26.336Z,0.20
2019-03-06T02:00:01.415Z,0.10
2019-03-06T02:01:36.285Z,0.10
2019-03-06T02:03:11.273Z,0.10
2019-03-06T02:04:46.066Z,0.10
2019-03-06T02:06:21.186Z,0.10
2019-03-06T02:07:55.983Z,0.20
2019-03-06T02:09:31.539Z,0.20
2019-03-06T02:11:06.826Z,0.20
2019-03-06T02:12:42.253Z,0.10
2019-03-06T02:14:17.214Z,0.00
2019-03-06T02:15:52.145Z,0.10
2019-03-06T02:17:27.315Z,0.00
2019-03-06T02:19:03.456Z,0.00
2019-03-06T02:20:38.512Z,-0.10
2019-03-06T02:22:13.575Z,-0.10
2019-03-06T02:23:48.408Z,-0.10
2019-03-06T02:25:23.208Z,-0.10
2019-03-06T02:26:58.275Z,-0.10
2019-03-06T02:28:33.328Z,0.00
2019-03-06T02:30:13.333Z,0.00
2019-03-06T02:31:48.135Z,-0.10
2019-03-06T02:33:22.962Z,-0.10
2019-03-06T02:34:57.757Z,-0.10
2019-03-06T02:36:32.595Z,-0.20
2019-03-06T02:38:07.552Z,-0.20
2019-03-06T02:39:42.643Z,-0.30
2019-03-06T02:41:17.451Z,-0.30
2019-03-06T02:42:52.524Z,-0.40
2019-03-06T02:44:27.318Z,-0.40
2019-03-06T02:46:02.201Z,-0.40
2019-03-06T02:47:36.999Z,-0.30
2019-03-06T02:49:11.823Z,-0.30
2019-03-06T02:50:46.620Z,-0.20
2019-03-06T02:52:21.680Z,-0.30
2019-03-06T02:53:56.515Z,-0.30
2019-03-06T02:55:31.313Z,-0.30
2019-03-06T02:57:06.191Z,-0.20
2019-03-06T02:58:47.272Z,-0.20
2019-03-06T03:00:46.006Z,-0.20
2019-03-06T03:02:31.849Z,-0.20
2019-03-06T03:04:37.742Z,-0.20
2019-03-06T03:06:19.546Z,-0.20
2019-03-06T03:07:54.860Z,-0.20
2019-03-06T03:09:30.009Z,-0.20
2019-03-06T03:11:05.176Z,-0.10
2019-03-06T03:12:40.265Z,-0.10
2019-03-06T03:14:15.135Z,-0.20
2019-03-06T03:15:50.164Z,-0.20
2019-03-06T03:17:24.975Z,-0.10
2019-03-06T03:18:59.781Z,-0.10
2019-03-06T03:20:34.880Z,-0.20
2019-03-06T03:22:09.956Z,-0.10
2019-03-06T03:23:44.755Z,-0.20
2019-03-06T03:25:19.888Z,-0.30
2019-03-06T03:26:55.200Z,-0.30
2019-03-06T03:28:30.005Z,-0.30
2019-03-06T03:30:07.669Z,-0.30
2019-03-06T03:31:42.504Z,-0.30
2019-03-06T03:33:17.323Z,-0.30
2019-03-06T03:34:52.476Z,-0.40
2019-03-06T03:36:27.292Z,-0.50
2019-03-06T03:38:02.353Z,-0.40
2019-03-06T03:39:37.391Z,-0.40
2019-03-06T03:41:12.447Z,-0.40
2019-03-06T03:42:47.263Z,-0.40
2019-03-06T03:44:22.355Z,-0.40
2019-03-06T03:45:57.164Z,-0.30
2019-03-06T03:47:32.221Z,-0.40
2019-03-06T03:49:07.011Z,-0.40
2019-03-06T03:50:41.883Z,-0.40
2019-03-06T03:52:16.976Z,-0.50
2019-03-06T03:53:52.034Z,-0.50
2019-03-06T03:55:26.891Z,-0.50
2019-03-06T03:57:01.714Z,-0.60
2019-03-06T03:58:36.808Z,-0.60
2019-03-06T04:00:14.059Z,-0.60
2019-03-06T04:01:49.107Z,-0.60
2019-03-06T04:03:24.202Z,-0.60
2019-03-06T04:04:59.071Z,-0.60
2019-03-06T04:06:34.565Z,-0.60
2019-03-06T04:08:09.923Z,-0.60
2019-03-06T04:09:44.704Z,-0.50
2019-03-06T04:11:20.032Z,-0.50
2019-03-06T04:12:54.816Z,-0.60
2019-03-06T04:14:29.786Z,-0.60
2019-03-06T04:16:04.672Z,-0.70
2019-03-06T04:17:39.766Z,-0.70
2019-03-06T04:19:14.558Z,-0.70
2019-03-06T04:20:49.424Z,-0.60
2019-03-06T04:22:24.590Z,-0.60
2019-03-06T04:23:59.674Z,-0.60
2019-03-06T04:25:34.793Z,-0.70
2019-03-06T04:27:09.580Z,-0.70
2019-03-06T04:28:44.869Z,-0.70
2019-03-06T04:30:20.178Z,-0.60
2019-03-06T04:31:54.966Z,-0.60
2019-03-06T04:33:29.753Z,-0.50
2019-03-06T04:35:04.721Z,-0.50
2019-03-06T04:36:39.805Z,-0.60
2019-03-06T04:38:15.233Z,-0.70
2019-03-06T04:39:50.275Z,-0.70
2019-03-06T04:41:25.338Z,-0.70
2019-03-06T04:43:00.406Z,-0.80
2019-03-06T04:44:35.203Z,-0.70
2019-03-06T04:46:10.333Z,-0.80
2019-03-06T04:50:53.977Z,-0.80
2019-03-06T04:52:29.046Z,-0.90
2019-03-06T05:38:03.583Z,-1.00
2019-03-06T05:41:13.375Z,-0.70
2019-03-06T05:42:48.537Z,-0.80
2019-03-06T05:44:23.334Z,-0.80
2019-03-06T05:45:58.419Z,-0.80
2019-03-06T05:47:33.488Z,-0.90
2019-03-06T05:49:08.509Z,-0.90
2019-03-06T05:50:43.326Z,-0.90
2019-03-06T05:52:18.110Z,-0.90
2019-03-06T05:53:53.084Z,-0.90
2019-03-06T05:55:27.872Z,-0.90
2019-03-06T05:57:02.679Z,-0.90
2019-03-06T05:58:37.466Z,-0.90
2019-03-06T06:00:12.922Z,-0.90
2019-03-06T06:01:48.510Z,-0.90
2019-03-06T06:03:23.360Z,-0.80
2019-03-06T06:04:58.404Z,-0.80
2019-03-06T06:06:33.297Z,-0.80
2019-03-06T06:08:08.453Z,-0.70
2019-03-06T06:09:43.267Z,-0.70
2019-03-06T06:11:18.062Z,-0.60
2019-03-06T06:12:52.935Z,-0.60
2019-03-06T06:14:27.761Z,-0.50
2019-03-06T06:16:02.628Z,-0.40
2019-03-06T06:17:37.992Z,-0.30
2019-03-06T06:19:13.029Z,-0.30
2019-03-06T06:20:50.421Z,-0.30
2019-03-06T06:22:42.826Z,-0.20
2019-03-06T06:24:23.514Z,-0.10
2019-03-06T06:25:58.594Z,-0.10
2019-03-06T06:27:33.677Z,0.10
2019-03-06T06:29:08.699Z,0.40
2019-03-06T06:30:43.871Z,0.50
2019-03-06T06:32:18.915Z,0.60
2019-03-06T06:33:53.735Z,0.80
2019-03-06T06:35:28.600Z,1.10
2019-03-06T06:37:03.385Z,1.30
2019-03-06T06:38:38.443Z,1.40
2019-03-06T06:40:13.719Z,1.50
2019-03-06T06:41:48.507Z,1.60
2019-03-06T06:43:23.316Z,1.70
2019-03-06T06:44:58.626Z,2.00
2019-03-06T06:46:33.449Z,2.00
2019-03-06T06:48:17.552Z,1.90
2019-03-06T06:49:52.627Z,1.90
2019-03-06T06:52:12.601Z,1.90
2019-03-06T06:54:07.038Z,2.00
2019-03-06T06:56:38.697Z,2.00
2019-03-06T06:58:58.920Z,2.00
2019-03-06T07:01:12.820Z,2.10
2019-03-06T07:03:28.087Z,2.20
2019-03-06T07:05:19.512Z,2.40
2019-03-06T07:07:07.234Z,2.50
2019-03-06T07:09:01.271Z,2.60
2019-03-06T07:10:37.845Z,2.70
2019-03-06T07:12:18.118Z,2.90
2019-03-06T07:14:11.636Z,3.10
2019-03-06T07:16:06.789Z,3.30
2019-03-06T07:18:19.168Z,3.40
2019-03-06T07:20:05.505Z,3.50
2019-03-06T07:21:57.730Z,3.50
2019-03-06T07:23:49.112Z,3.40
2019-03-06T07:25:42.166Z,3.40
2019-03-06T07:27:42.043Z,3.50
2019-03-06T07:29:44.479Z,3.60
2019-03-06T07:31:26.397Z,3.60
2019-03-06T07:33:14.548Z,3.70
2019-03-06T07:35:53.402Z,3.80
2019-03-06T07:37:42.753Z,3.90
2019-03-06T07:39:28.317Z,4.20
2019-03-06T07:41:25.000Z,4.30
2019-03-06T07:43:13.341Z,4.50
2019-03-06T07:45:42.774Z,4.70
2019-03-06T07:47:49.087Z,4.70
2019-03-06T07:49:45.045Z,4.90
2019-03-06T07:51:33.210Z,5.10
2019-03-06T07:53:59.221Z,5.50
2019-03-06T07:55:46.871Z,5.60
2019-03-06T07:57:25.691Z,5.70
2019-03-06T07:59:00.828Z,5.80
2019-03-06T08:00:35.631Z,6.00
2019-03-06T08:02:15.357Z,6.10
2019-03-06T08:04:02.030Z,6.20
2019-03-06T08:05:36.886Z,6.40
2019-03-06T08:07:15.914Z,6.40
2019-03-06T08:08:50.834Z,6.60
2019-03-06T08:10:28.541Z,6.60
2019-03-06T08:12:15.966Z,6.70
2019-03-06T08:14:00.318Z,6.70
2019-03-06T08:15:56.333Z,6.80
2019-03-06T08:17:51.437Z,6.80
2019-03-06T08:19:44.639Z,7.10
2019-03-06T08:21:32.600Z,7.20
2019-03-06T08:23:29.613Z,7.20
2019-03-06T08:25:28.693Z,7.30
2019-03-06T08:27:04.828Z,7.60
2019-03-06T08:28:40.716Z,7.90
2019-03-06T08:30:16.395Z,8.00
2019-03-06T08:31:57.037Z,8.10
2019-03-06T08:33:31.930Z,8.20
2019-03-06T08:35:09.799Z,8.30
2019-03-06T08:36:44.946Z,8.60
2019-03-06T08:38:19.994Z,8.70
2019-03-06T08:39:55.995Z,8.90
2019-03-06T08:41:31.162Z,9.00
2019-03-06T08:43:06.323Z,9.00
2019-03-06T08:44:41.777Z,9.40
2019-03-06T09:40:47.787Z,9.90
2019-03-06T10:00:39.462Z,11.20
2019-03-06T10:13:16.680Z,11.20
2019-03-06T10:25:18.669Z,12.40
2019-03-06T10:26:54.090Z,11.50
2019-03-06T10:28:29.223Z,11.90
2019-03-06T10:36:52.579Z,12.30
2019-03-06T10:38:27.432Z,12.90
2019-03-06T10:40:02.219Z,12.70
2019-03-06T10:41:37.276Z,12.80
2019-03-06T10:43:12.149Z,13.40
2019-03-06T10:44:47.176Z,12.90
2019-03-06T10:46:22.650Z,12.70
2019-03-06T10:47:57.544Z,12.70
2019-03-06T10:49:32.655Z,13.10
2019-03-06T10:51:07.889Z,13.50
2019-03-06T10:52:43.132Z,13.70
2019-03-06T10:54:17.992Z,13.70
2019-03-06T10:55:52.934Z,14.40
2019-03-06T10:57:28.067Z,14.40
2019-03-06T10:59:03.010Z,13.60
2019-03-06T11:00:44.536Z,13.50
2019-03-06T11:02:19.413Z,13.50
2019-03-06T11:07:31.587Z,14.00
2019-03-06T11:09:10.456Z,13.20
2019-03-06T11:20:17.826Z,13.60
2019-03-06T11:21:52.778Z,12.40
2019-03-06T11:23:27.618Z,12.40
2019-03-06T11:25:02.951Z,12.30
2019-03-06T11:26:39.722Z,12.70
2019-03-06T11:28:15.558Z,12.40
2019-03-06T11:29:50.437Z,12.60
2019-03-06T11:34:38.741Z,12.20
2019-03-06T11:45:44.552Z,12.30
2019-03-06T11:47:20.014Z,11.80
2019-03-06T11:48:55.499Z,11.70
2019-03-06T11:50:31.009Z,11.80
2019-03-06T11:52:07.930Z,11.70
2019-03-06T11:53:43.264Z,11.80
2019-03-06T11:55:19.216Z,11.60
2019-03-06T11:56:55.303Z,11.70
2019-03-06T11:58:30.573Z,12.30
2019-03-06T12:04:56.858Z,12.20
2019-03-06T12:06:32.107Z,12.80
2019-03-06T12:14:28.892Z,13.00
2019-03-06T12:19:12.938Z,12.60
2019-03-06T12:31:51.269Z,12.00
2019-03-06T12:38:11.741Z,12.90
2019-03-06T12:39:47.059Z,12.50
2019-03-06T12:41:22.128Z,13.20
2019-03-06T12:42:57.451Z,13.90
2019-03-06T12:49:31.027Z,13.90
2019-03-06T14:07:05.658Z,12.50
2019-03-06T14:08:41.042Z,13.40
2019-03-06T14:10:20.268Z,13.20
2019-03-06T14:11:55.400Z,13.10
2019-03-06T14:13:30.266Z,13.30
2019-03-06T14:15:05.855Z,13.30
2019-03-06T14:16:40.642Z,13.50
2019-03-06T14:18:16.584Z,13.40
2019-03-06T14:19:51.637Z,13.60
2019-03-06T14:21:26.540Z,13.50
2019-03-06T14:23:01.323Z,13.60
2019-03-06T14:24:36.727Z,13.60
2019-03-06T14:26:12.071Z,13.60
2019-03-06T14:27:47.345Z,13.70
2019-03-06T14:29:22.395Z,13.50
2019-03-06T14:30:57.386Z,13.30
2019-03-06T14:32:32.460Z,13.20
2019-03-06T14:34:07.242Z,13.30
2019-03-06T14:35:42.193Z,13.50
2019-03-06T14:37:17.405Z,13.60
2019-03-06T14:38:52.558Z,13.50
2019-03-06T14:40:29.934Z,13.60
2019-03-06T14:42:05.155Z,13.60
2019-03-06T14:43:40.014Z,13.30
2019-03-06T14:45:15.887Z,13.30
2019-03-06T14:46:50.889Z,13.60
2019-03-06T14:48:26.373Z,13.50
2019-03-06T14:50:01.196Z,13.30
2019-03-06T14:51:35.984Z,13.20
2019-03-06T14:53:11.033Z,13.50
2019-03-06T14:54:46.284Z,13.60
2019-03-06T14:56:26.037Z,13.50
2019-03-06T14:58:00.831Z,13.40
2019-03-06T14:59:35.625Z,13.60
2019-03-06T15:01:11.220Z,13.70
2019-03-06T15:02:46.225Z,13.50
2019-03-06T15:04:21.264Z,13.40
2019-03-06T15:05:56.462Z,13.20
2019-03-06T15:07:31.348Z,13.20
2019-03-06T15:09:22.347Z,13.30
2019-03-06T15:10:57.536Z,13.30
2019-03-06T15:12:32.716Z,13.20
2019-03-06T15:14:07.566Z,13.00
2019-03-06T15:15:42.510Z,13.00
2019-03-06T15:17:17.634Z,12.90
2019-03-06T15:22:02.970Z,12.70
2019-03-06T15:31:33.334Z,12.40
2019-03-06T15:33:08.224Z,12.10
2019-03-06T15:34:43.348Z,12.10
2019-03-06T15:36:18.505Z,12.10
2019-03-06T15:37:53.619Z,12.10
2019-03-06T15:39:31.426Z,12.10
2019-03-06T15:41:06.487Z,12.10
2019-03-06T15:42:41.293Z,12.20
2019-03-06T15:44:16.181Z,12.10
2019-03-06T15:45:52.093Z,12.10
2019-03-06T15:47:33.667Z,12.10
2019-03-06T15:49:04.456Z,12.10
2019-03-06T15:50:40.103Z,12.00
2019-03-06T15:52:15.110Z,11.90
2019-03-06T15:53:50.481Z,11.90
2019-03-06T15:55:29.082Z,11.90
2019-03-06T15:57:04.191Z,11.80
2019-03-06T15:58:39.045Z,11.80
2019-03-06T16:00:30.798Z,11.80
2019-03-06T16:02:06.619Z,11.80
2019-03-06T16:03:41.661Z,11.80
2019-03-06T21:55:10.427Z,11.80
2019-03-06T21:56:45.302Z,10.30
2019-03-06T21:58:20.394Z,10.20
2019-03-06T21:59:55.220Z,10.10
2019-03-06T22:01:30.289Z,10.10
2019-03-06T22:03:05.481Z,10.10
2019-03-06T22:04:40.509Z,10.10
2019-03-06T22:06:17.648Z,10.20
2019-03-06T22:07:52.189Z,10.20
2019-03-06T22:09:27.481Z,10.10
2019-03-06T22:14:11.949Z,10.00
2019-03-06T22:15:47.090Z,9.90
2019-03-06T22:17:22.565Z,9.90
2019-03-06T22:18:57.516Z,10.00
2019-03-06T22:20:32.308Z,9.90
2019-03-06T22:22:07.496Z,9.90
2019-03-06T22:23:42.253Z,9.80
2019-03-06T22:25:18.454Z,9.80
2019-03-06T22:26:53.519Z,9.80
2019-03-06T22:28:28.701Z,9.70
2019-03-06T22:30:03.587Z,9.80
2019-03-06T22:31:39.256Z,9.80
2019-03-06T22:33:14.052Z,9.80
2019-03-06T22:34:48.922Z,9.80
2019-03-06T22:36:23.732Z,9.70
2019-03-06T22:37:58.533Z,9.70
2019-03-06T22:39:33.519Z,9.80
2019-03-06T22:41:08.301Z,9.80
2019-03-06T22:42:43.254Z,9.80
2019-03-06T22:44:18.602Z,9.80
2019-03-06T22:45:53.388Z,9.80
2019-03-06T22:47:28.416Z,9.80
2019-03-06T22:49:03.458Z,9.70
2019-03-06T22:50:38.371Z,9.70
2019-03-06T22:52:13.176Z,9.80
2019-03-06T22:53:48.312Z,9.70
